• Join FlightAware (Why Join?)
  • Login
  • US Flag 
04:02AM EDT


 

Airport Tracker/Info


-or-


 

Live Flight TrackerFlight Track Log ✈ AWQ8122 ✈ 25-Aug-2013 ✈ WARR / SUB - VTBD / DMK

Flight Track Log - Related Links

Times and Time Zones

All times are in EDT time to prevent confusion due to time zone crossing. See the AWQ8122 flight status page for this flight to view local times or setup timezone preferences in your user account.

Time Position Orientation Groundspeed Altitude Reporting Facility
EDT Latitude Longitude Course Direction KTS MPH feet Rate Location/Type
05:52AM -7.3830 112.8070 99° East 148 170 1,200  Level FlightAware
05:52AM -7.3780 112.8250 74° East 176 203 1,800 1,020 Climbing FlightAware
05:52AM -7.3750 112.8270 33° Northeast 184 212 1,900 120 Climbing FlightAware
05:53AM -7.3590 112.8400 39° Northeast 184 212 1,900 2,520 Level FlightAware
05:53AM -7.3080 112.8570 18° North 234 269 4,500 3,960 Climbing FlightAware
05:54AM -7.2870 112.8630 16° North 244 281 5,400 2,520 Climbing FlightAware
05:54AM -7.2670 112.8640 North 245 282 6,200 2,880 Climbing FlightAware
05:54AM -7.2350 112.8630 358° North 245 282 7,600 3,060 Climbing FlightAware
05:55AM -7.2120 112.8630 360° North 248 285 8,500 2,700 Climbing FlightAware
05:55AM -7.1890 112.8590 350° North 248 285 9,400 2,700 Climbing FlightAware
05:56AM -7.1520 112.8460 341° North 247 284 11,000 2,280 Climbing FlightAware
05:56AM -7.1130 112.8320 340° North 260 299 12,100 2,100 Climbing FlightAware
05:57AM -7.0720 112.8180 341° North 263 303 13,500 2,280 Climbing FlightAware
05:57AM -7.0370 112.8060 341° North 266 306 14,600 1,920 Climbing FlightAware
05:58AM -6.9930 112.7860 336° Northwest 277 319 15,800 1,320 Climbing FlightAware
05:59AM -6.9460 112.7550 327° Northwest 312 359 16,400 780 Climbing FlightAware
05:59AM -6.9010 112.7250 327° Northwest 345 397 16,800 660 Climbing FlightAware
06:00AM -6.8530 112.6940 327° Northwest 374 430 17,200 1,080 Climbing FlightAware
06:00AM -6.7920 112.6540 327° Northwest 387 445 18,200 1,440 Climbing FlightAware
06:01AM -6.7490 112.6260 327° Northwest 393 452 18,900 1,560 Climbing FlightAware
06:01AM -6.6920 112.5880 326° Northwest 399 459 19,900 1,800 Climbing FlightAware
06:02AM -6.6380 112.5530 327° Northwest 400 460 21,000 1,080 Climbing FlightAware
06:03AM -6.5610 112.5030 327° Northwest 407 468 21,500 300 Climbing FlightAware
06:04AM -6.5130 112.4710 326° Northwest 407 468 21,500  Level FlightAware
06:04AM -6.4650 112.4400 327° Northwest 407 468 21,500  Level FlightAware
06:05AM -6.4160 112.4080 327° Northwest 407 468 21,500  Level FlightAware
06:05AM -6.3680 112.3760 326° Northwest 407 468 21,500  Level FlightAware
06:06AM -6.3200 112.3450 327° Northwest 407 468 21,500 120 Level FlightAware
06:09AM -6.0621 112.1960 330° Northwest  Level Estimated
06:10AM -5.9610 112.1376 330° Northwest  Level Estimated
06:11AM -5.8599 112.0792 330° Northwest  Level Estimated
06:12AM -5.7587 112.0208 330° Northwest  Level Estimated
06:13AM -5.6576 111.9625 330° Northwest  Level Estimated
06:14AM -5.5564 111.9042 330° Northwest  Level Estimated
06:15AM -5.4552 111.8459 330° Northwest  Level Estimated
06:16AM -5.3541 111.7876 330° Northwest  Level Estimated
06:17AM -5.2529 111.7293 330° Northwest  Level Estimated
06:18AM -5.1517 111.6711 330° Northwest  Level Estimated
06:19AM -5.0505 111.6129 330° Northwest  Level Estimated
06:20AM -4.9493 111.5547 330° Northwest  Level Estimated
06:21AM -4.8481 111.4965 330° Northwest  Level Estimated
06:22AM -4.7469 111.4383 330° Northwest  Level Estimated
06:23AM -4.6457 111.3802 330° Northwest  Level Estimated
06:24AM -4.5445 111.3221 330° Northwest  Level Estimated
06:25AM -4.4433 111.2639 330° Northwest  Level Estimated
06:26AM -4.3421 111.2058 330° Northwest  Level Estimated
06:27AM -4.2408 111.1477 330° Northwest  Level Estimated
06:28AM -4.1396 111.0897 330° Northwest  Level Estimated
06:29AM -4.0384 111.0316 330° Northwest  Level Estimated
06:30AM -3.9372 110.9736 330° Northwest  Level Estimated
06:31AM -3.8359 110.9155 330° Northwest  Level Estimated
06:32AM -3.7347 110.8575 330° Northwest  Level Estimated
06:33AM -3.6334 110.7995 330° Northwest  Level Estimated
06:34AM -3.5322 110.7415 330° Northwest  Level Estimated
06:35AM -3.4309 110.6836 330° Northwest  Level Estimated
06:36AM -3.3296 110.6256 330° Northwest  Level Estimated
06:37AM -3.2284 110.5677 330° Northwest  Level Estimated
06:38AM -3.1271 110.5097 330° Northwest  Level Estimated
06:39AM -3.0258 110.4518 330° Northwest  Level Estimated
06:40AM -2.9246 110.3939 330° Northwest  Level Estimated
06:41AM -2.8233 110.3360 330° Northwest  Level Estimated
06:42AM -2.7220 110.2781 330° Northwest  Level Estimated
06:43AM -2.6207 110.2202 330° Northwest  Level Estimated
06:44AM -2.5194 110.1623 330° Northwest  Level Estimated
06:45AM -2.4182 110.1044 330° Northwest  Level Estimated
06:46AM -2.3169 110.0466 330° Northwest  Level Estimated
06:47AM -2.2156 109.9887 330° Northwest  Level Estimated
06:48AM -2.1143 109.9309 330° Northwest  Level Estimated
06:49AM -2.0130 109.8730 330° Northwest  Level Estimated
06:50AM -1.9117 109.8152 330° Northwest  Level Estimated
06:51AM -1.8104 109.7574 330° Northwest  Level Estimated
06:52AM -1.7091 109.6996 330° Northwest  Level Estimated
06:53AM -1.6078 109.6418 330° Northwest  Level Estimated
06:54AM -1.5065 109.5840 330° Northwest  Level Estimated
06:55AM -1.4052 109.5262 330° Northwest  Level Estimated
06:56AM -1.3039 109.4684 330° Northwest  Level Estimated
06:57AM -1.2026 109.4106 330° Northwest  Level Estimated
06:58AM -1.1012 109.3528 330° Northwest  Level Estimated
06:59AM -0.9999 109.2950 330° Northwest  Level Estimated
07:00AM -0.8986 109.2373 330° Northwest  Level Estimated
07:01AM -0.7973 109.1795 330° Northwest  Level Estimated
07:02AM -0.6960 109.1217 330° Northwest  Level Estimated
07:03AM -0.5947 109.0639 330° Northwest  Level Estimated
07:04AM -0.4934 109.0062 330° Northwest  Level Estimated
07:05AM -0.3920 108.9484 330° Northwest  Level Estimated
07:06AM -0.2907 108.8906 330° Northwest  Level Estimated
07:07AM -0.1894 108.8329 330° Northwest  Level Estimated
07:08AM -0.0881 108.7751 330° Northwest  Level Estimated
07:09AM 0.0132 108.7174 330° Northwest  Level Estimated
07:10AM 0.1146 108.6596 330° Northwest  Level Estimated
07:11AM 0.2159 108.6019 330° Northwest  Level Estimated
07:12AM 0.3172 108.5441 330° Northwest  Level Estimated
07:13AM 0.4185 108.4863 330° Northwest  Level Estimated
07:14AM 0.5198 108.4286 330° Northwest  Level Estimated
07:15AM 0.6212 108.3708 330° Northwest  Level Estimated
07:16AM 0.7225 108.3130 330° Northwest  Level Estimated
07:17AM 0.8238 108.2553 330° Northwest  Level Estimated
07:18AM 0.9251 108.1975 330° Northwest  Level Estimated
07:19AM 1.0264 108.1397 330° Northwest  Level Estimated
07:20AM 1.1277 108.0819 330° Northwest  Level Estimated
07:21AM 1.2290 108.0241 330° Northwest  Level Estimated
07:22AM 1.3303 107.9664 330° Northwest  Level Estimated
07:23AM 1.4317 107.9086 330° Northwest  Level Estimated
07:24AM 1.5330 107.8508 330° Northwest  Level Estimated
07:25AM 1.6343 107.7930 330° Northwest  Level Estimated
07:26AM 1.7356 107.7352 330° Northwest  Level Estimated
07:27AM 1.8369 107.6773 330° Northwest  Level Estimated
07:28AM 1.9382 107.6195 330° Northwest  Level Estimated
07:29AM 2.0395 107.5617 330° Northwest  Level Estimated
07:30AM 2.1408 107.5039 330° Northwest  Level Estimated
07:31AM 2.2420 107.4460 330° Northwest  Level Estimated
07:32AM 2.3433 107.3882 330° Northwest  Level Estimated
07:33AM 2.4446 107.3303 330° Northwest  Level Estimated
07:34AM 2.5459 107.2724 330° Northwest  Level Estimated
07:35AM 2.6472 107.2145 330° Northwest  Level Estimated
07:36AM 2.7485 107.1567 330° Northwest  Level Estimated
07:37AM 2.8498 107.0988 330° Northwest  Level Estimated
07:38AM 2.9510 107.0408 330° Northwest  Level Estimated
07:39AM 3.0523 106.9829 330° Northwest  Level Estimated
07:40AM 3.1536 106.9250 330° Northwest  Level Estimated
07:40AM 1.9710 104.1670 330° Northwest 439 505 34,000  Level FlightAware
07:40AM 2.0230 104.1430 335° Northwest 438 504 34,000  Level FlightAware
07:41AM 2.1000 104.1070 335° Northwest 438 504 34,000  Level FlightAware
07:42AM 2.1770 104.0700 334° Northwest 437 503 34,000  Level FlightAware
07:42AM 2.2330 104.0420 333° Northwest 437 503 34,000  Level FlightAware
07:43AM 2.3320 103.9960 335° Northwest 437 503 34,000  Level FlightAware
07:44AM 2.4070 103.9600 334° Northwest 437 503 34,000  Level FlightAware
07:44AM 2.4620 103.9330 334° Northwest 437 503 34,000  Level FlightAware
07:45AM 2.5550 103.8910 336° Northwest 436 502 34,000  Level FlightAware
07:46AM 2.6210 103.8610 336° Northwest 434 499 34,000  Level FlightAware
07:47AM 2.7080 103.8210 335° Northwest 434 499 34,000  Level FlightAware
07:47AM 2.7730 103.7920 336° Northwest 434 499 34,000  Level FlightAware
07:48AM 2.8320 103.7650 335° Northwest 434 499 34,000  Level FlightAware
07:48AM 2.9210 103.7250 336° Northwest 436 502 34,000  Level FlightAware
07:49AM 3.0030 103.6870 335° Northwest 438 504 34,000  Level FlightAware
07:50AM 3.0480 103.6610 330° Northwest 441 507 34,000  Level FlightAware
07:50AM 3.1210 103.6200 331° Northwest 441 507 34,000  Level FlightAware
07:51AM 3.1940 103.5790 331° Northwest 441 507 34,000  Level FlightAware
07:52AM 3.2940 103.5240 331° Northwest 441 507 34,000  Level FlightAware
07:52AM 3.3520 103.4910 330° Northwest 441 507 34,000  Level FlightAware
07:53AM 3.4110 103.4570 330° Northwest 441 507 34,000  Level FlightAware
07:54AM 3.4800 103.4190 331° Northwest 443 510 34,000  Level FlightAware
07:55AM 3.5800 103.3620 330° Northwest 444 511 34,000  Level FlightAware
07:55AM 3.6740 103.3100 331° Northwest 448 516 34,000  Level FlightAware
07:56AM 3.7410 103.2770 334° Northwest 447 514 34,000  Level FlightAware
07:57AM 3.8230 103.2460 339° North 447 514 34,000  Level FlightAware
07:58AM 3.9240 103.2180 345° North 433 498 34,000  Level FlightAware
07:58AM 4.0240 103.1820 340° North 430 495 34,000  Level FlightAware
07:59AM 4.0900 103.1580 340° North 429 494 34,000  Level FlightAware
08:00AM 4.1490 103.1360 340° North 428 493 34,000  Level FlightAware
08:01AM 4.2430 103.1000 339° North 429 494 34,000  Level FlightAware
08:01AM 4.3450 103.0620 340° North 434 499 34,000  Level FlightAware
08:02AM 4.4190 103.0310 337° Northwest 434 499 34,000  Level FlightAware
08:02AM 4.4760 103.0080 338° Northwest 434 499 34,000 60 Level FlightAware
08:03AM 4.5520 102.9770 338° Northwest 433 498 34,100  Climbing FlightAware
08:04AM 4.6170 102.9500 338° Northwest 431 496 34,000 -120 Descending FlightAware
08:04AM 4.6960 102.9180 338° Northwest 430 495 34,000  Level FlightAware
08:05AM 4.7710 102.8870 338° Northwest 430 495 34,000  Level FlightAware
08:06AM 4.8740 102.8450 338° Northwest 431 496 34,000  Level FlightAware
08:06AM 4.9420 102.8170 338° Northwest 434 499 34,000  Level FlightAware
08:07AM 5.0130 102.7880 338° Northwest 435 501 34,000  Level FlightAware
08:08AM 5.0770 102.7610 337° Northwest 438 504 34,000  Level FlightAware
08:08AM 5.1550 102.7290 338° Northwest 439 505 34,000  Level FlightAware
08:09AM 5.2220 102.7020 338° Northwest 440 506 34,000  Level FlightAware
08:09AM 5.2800 102.6780 338° Northwest 442 509 34,000  Level FlightAware
08:10AM 5.3540 102.6480 338° Northwest 442 509 34,000  Level FlightAware
08:11AM 5.4230 102.6190 337° Northwest 442 509 34,000  Level FlightAware
08:11AM 5.4940 102.5980 344° North 435 501 34,000  Level FlightAware
08:12AM 5.5620 102.5850 349° North 434 499 34,000  Level FlightAware
08:12AM 5.6330 102.5710 349° North 434 499 34,000  Level FlightAware
08:13AM 5.6950 102.5580 348° North 433 498 34,000  Level FlightAware
08:14AM 5.7600 102.5450 349° North 433 498 34,000  Level FlightAware
08:14AM 5.8560 102.5260 349° North 434 499 34,000  Level FlightAware
08:15AM 5.9110 102.5150 349° North 434 499 34,000  Level FlightAware
08:15AM 5.9830 102.5010 349° North 433 498 34,000  Level FlightAware
08:16AM 6.0420 102.4890 349° North 431 496 34,000  Level FlightAware
08:17AM 6.1310 102.4710 349° North 429 494 34,000  Level FlightAware
08:17AM 6.1910 102.4590 349° North 428 493 34,000  Level FlightAware
08:18AM 6.2790 102.4420 349° North 427 491 34,000  Level FlightAware
08:18AM 6.3420 102.4290 348° North 427 491 34,000  Level FlightAware
08:19AM 6.4190 102.4140 349° North 426 490 34,000  Level FlightAware
08:20AM 6.4870 102.4010 349° North 427 491 34,000  Level FlightAware
08:20AM 6.5610 102.3860 349° North 430 495 34,000  Level FlightAware
08:21AM 6.6430 102.3690 348° North 431 496 34,000  Level FlightAware
08:22AM 6.7020 102.3560 348° North 431 496 34,000  Level FlightAware
08:22AM 6.7620 102.3440 349° North 431 496 34,000 60 Level FlightAware
08:23AM 6.5610 102.3860 168° South 34,100 120 Climbing FlightAware
08:23AM 6.8810 102.3230 349° North 426 490 34,100 -120 Level FlightAware
08:24AM 6.9450 102.3100 349° North 426 490 34,000 -120 Descending FlightAware
08:24AM 7.0160 102.2960 349° North 425 489 34,000  Level FlightAware
08:25AM 7.0840 102.2830 349° North 427 491 34,000  Level FlightAware
08:25AM 7.1540 102.2690 349° North 426 490 34,000  Level FlightAware
08:26AM 7.2200 102.2550 348° North 426 490 34,000  Level FlightAware
08:27AM 7.2790 102.2430 349° North 426 490 34,000  Level FlightAware
08:27AM 7.3380 102.2300 348° North 426 490 34,000  Level FlightAware
08:28AM 7.3970 102.2170 348° North 426 490 34,000  Level FlightAware
08:29AM 7.4560 102.2050 349° North 426 490 34,000  Level FlightAware
08:29AM 7.5160 102.1920 348° North 426 490 34,000  Level FlightAware
08:30AM 7.5750 102.1790 348° North 426 490 34,000  Level FlightAware
08:30AM 7.6360 102.1660 348° North 426 490 34,000  Level FlightAware
08:31AM 7.6950 102.1530 348° North 426 490 34,000  Level FlightAware
08:32AM 7.7540 102.1410 349° North 426 490 34,000  Level FlightAware
08:32AM 7.8130 102.1280 348° North 426 490 34,000  Level FlightAware
08:33AM 7.8720 102.1150 348° North 426 490 34,000  Level FlightAware
08:33AM 7.9310 102.1030 349° North 426 490 34,000  Level FlightAware
08:34AM 7.9900 102.0900 348° North 426 490 34,000  Level FlightAware
08:35AM 8.0490 102.0770 348° North 426 490 34,000  Level FlightAware
08:35AM 8.1080 102.0650 349° North 426 490 34,000  Level FlightAware
08:38AM 8.3639 102.0018 346° North  Level Estimated
08:39AM 8.4721 101.9751 346° North  Level Estimated
08:40AM 8.5802 101.9484 346° North  Level Estimated
08:41AM 8.6884 101.9217 346° North  Level Estimated
08:42AM 8.7965 101.8949 346° North  Level Estimated
08:43AM 8.9046 101.8681 346° North  Level Estimated
08:44AM 9.0128 101.8413 346° North  Level Estimated
08:45AM 9.1209 101.8145 346° North  Level Estimated
08:46AM 9.2290 101.7877 346° North  Level Estimated
08:47AM 9.3372 101.7609 346° North  Level Estimated
08:48AM 9.4453 101.7340 346° North  Level Estimated
08:49AM 9.5534 101.7072 346° North  Level Estimated
08:50AM 9.6615 101.6803 346° North  Level Estimated
08:51AM 9.7697 101.6534 346° North  Level Estimated
08:52AM 9.8778 101.6264 346° North  Level Estimated
08:53AM 9.9859 101.5995 346° North  Level Estimated
08:54AM 10.0940 101.5725 346° North  Level Estimated
08:55AM 10.2021 101.5456 346° North  Level Estimated
08:56AM 10.3102 101.5186 346° North  Level Estimated
08:57AM 10.4183 101.4916 346° North  Level Estimated
08:58AM 10.5264 101.4645 346° North  Level Estimated
08:59AM 10.6345 101.4375 346° North  Level Estimated
09:00AM 10.7426 101.4104 346° North  Level Estimated
09:01AM 10.8507 101.3833 346° North  Level Estimated
09:01AM 11.4300 101.7980 346° North 435 501 34,000  Level FlightAware
09:02AM 11.4970 101.7920 355° North 436 502 34,000  Level FlightAware
09:02AM 11.5680 101.7860 355° North 437 503 34,000  Level FlightAware
09:03AM 11.6420 101.7790 355° North 439 505 34,000  Level FlightAware
09:03AM 11.7110 101.7730 355° North 440 506 34,000  Level FlightAware
09:04AM 11.7900 101.7660 355° North 441 507 34,000  Level FlightAware
09:05AM 11.8940 101.7570 355° North 442 509 34,000  Level FlightAware
09:05AM 11.9690 101.7500 355° North 441 507 34,000  Level FlightAware
09:06AM 12.0360 101.7440 355° North 441 507 34,000  Level FlightAware
09:07AM 12.1100 101.7380 355° North 442 509 34,000  Level FlightAware
09:07AM 12.1870 101.7300 354° North 445 512 34,000  Level FlightAware
09:08AM 12.2380 101.7100 339° North 455 524 34,000 60 Level FlightAware
09:08AM 12.3030 101.6710 330° Northwest 452 520 34,100  Climbing FlightAware
09:09AM 12.3680 101.6320 330° Northwest 450 518 34,000 -120 Descending FlightAware
09:10AM 12.4540 101.5810 330° Northwest 449 517 34,000  Level FlightAware
09:10AM 12.5200 101.5410 329° Northwest 449 517 34,000  Level FlightAware
09:11AM 12.5780 101.5070 330° Northwest 448 516 34,000  Level FlightAware
09:11AM 12.6390 101.4700 329° Northwest 447 514 34,000  Level FlightAware
09:12AM 12.6940 101.4360 329° Northwest 447 514 34,000  Level FlightAware
09:13AM 12.7490 101.4020 329° Northwest 447 514 34,000  Level FlightAware
09:13AM 12.8040 101.3680 329° Northwest 447 514 34,000  Level FlightAware
09:14AM 12.8590 101.3340 329° Northwest 447 514 34,000  Level FlightAware
09:14AM 12.9130 101.3010 329° Northwest 447 514 34,000  Level FlightAware
09:15AM 12.9690 101.2670 329° Northwest 447 514 34,000  Level FlightAware
09:16AM 13.0240 101.2320 328° Northwest 447 514 34,000  Level FlightAware
09:16AM 13.0790 101.1990 330° Northwest 447 514 34,000 -9,300 Level FlightAware
09:17AM 13.2100 101.1210 330° Northwest 398 458 23,000 -10,320 Descending FlightAware
09:17AM 13.2670 101.0850 328° Northwest 386 444 21,800 -1,860 Descending FlightAware
09:18AM 13.3190 101.0540 330° Northwest 375 432 20,800 -1,920 Descending FlightAware
09:19AM 13.3750 101.0190 329° Northwest 364 419 19,500 -2,400 Descending FlightAware
09:19AM 13.4210 100.9910 329° Northwest 361 415 18,100 -2,340 Descending FlightAware
09:20AM 13.4720 100.9600 329° Northwest 344 396 16,900 -2,040 Descending FlightAware
09:20AM 13.5200 100.9300 329° Northwest 330 380 15,700 -2,220 Descending FlightAware
09:21AM 13.5670 100.9010 329° Northwest 330 380 14,300 -2,160 Descending FlightAware
09:21AM 13.6090 100.8750 329° Northwest 328 377 13,300 -1,440 Descending FlightAware
09:22AM 13.6530 100.8410 323° Northwest 324 373 12,700 -960 Descending FlightAware
09:23AM 13.6950 100.8070 322° Northwest 306 352 12,200 -840 Descending FlightAware
09:23AM 13.7290 100.7790 321° Northwest 298 343 11,800 -1,620 Descending FlightAware
09:24AM 13.7700 100.7460 322° Northwest 307 353 10,400 -1,680 Descending FlightAware
09:24AM 13.8010 100.7210 322° Northwest 290 334 10,000 -1,140 Descending FlightAware
09:25AM 13.8210 100.7040 320° Northwest 284 327 9,500 -1,500 Descending FlightAware
09:25AM 13.8430 100.6870 323° Northwest 279 321 9,000 -1,320 Descending FlightAware
09:25AM 13.8580 100.6750 322° Northwest 276 318 8,700 -1,500 Descending FlightAware
09:26AM 13.8790 100.6580 322° Northwest 273 314 8,100 -1,860 Descending FlightAware
09:26AM 13.9020 100.6390 321° Northwest 269 310 7,400 -1,920 Descending FlightAware
09:26AM 13.9220 100.6230 322° Northwest 269 310 6,700 -1,920 Descending FlightAware
09:26AM 13.9300 100.6170 324° Northwest 274 315 6,500 -1,920 Descending FlightAware
09:27AM 13.9440 100.6110 337° Northwest 278 320 6,100 -2,040 Descending FlightAware
09:27AM 13.9590 100.6070 345° North 277 319 5,700 -1,860 Descending FlightAware
09:27AM 13.9880 100.5980 343° North 274 315 5,000 -1,800 Descending FlightAware
09:28AM 14.0130 100.5910 345° North 274 315 4,400 -1,800 Descending FlightAware
09:28AM 14.0380 100.5840 345° North 269 310 3,800 -1,620 Descending FlightAware
09:28AM 14.0640 100.5760 343° North 262 302 3,300 -1,500 Descending FlightAware
09:28AM 14.0710 100.5760 360° North 265 305 3,100 -1,980 Descending FlightAware
09:29AM 14.0970 100.5850 19° North 277 319 2,400 -1,680 Descending FlightAware
09:29AM 14.1100 100.5990 46° Northeast 275 316 2,100 -1,080 Descending FlightAware
09:29AM 14.1150 100.6080 60° Northeast 269 310 2,000 -1,020 Descending FlightAware
09:29AM 14.1160 100.6130 78° East 267 307 1,900 -600 Descending FlightAware
09:29AM 14.1170 100.6220 83° East 260 299 1,900 -180 Level FlightAware
09:30AM 14.1060 100.6530 110° East 222 255 1,800 -120 Descending FlightAware
09:30AM 14.0960 100.6740 116° Southeast 222 255 1,800  Level FlightAware
09:31AM 14.0310 100.6710 183° South 174 200 1,800  Level FlightAware
09:32AM 14.0120 100.6600 209° Southwest 175 201 1,800 60 Level FlightAware
09:33AM 13.9870 100.6470 207° Southwest 170 196 1,900 120 Climbing FlightAware
09:35AM 13.9126 100.6068 208° Southwest  Level Estimated